Columbus, Ohio
Current Conditions -  °F | °C
As of 6:51 PM on Wednesday 28 Jan 2015 (Local Time) from KCMH Reporting Station
Scattered Clouds Scattered Clouds  
Wind Chill: 18°   Ceiling: Unl
Heat Index: 24°   Visibility: 10mi
Dew Point: 13°   Wind: 5mph
Humidity: 62%   Direction: 130°SE
Pressure: 30.27"   Gusts: NA
Location:  39.96°N, 83°W
Report Text: KCMH 282351Z 13004KT 10SM SCT200 M04/M11 A3027 RMK AO2 SLP266 T10441106 11033 21050 57010
Loading
Personal Weather Stations






























Interactive Weather Map New forecast layout! Learn more

10-Day Weather Forecast

Advertisements
Track Severe Weather on mobile